createdAt,value
2018-11-05T00:04:49.940Z,45.10
2018-11-05T00:07:18.246Z,44.00
2018-11-05T00:09:46.721Z,44.17
2018-11-05T00:12:15.014Z,44.90
2018-11-05T00:14:43.424Z,43.07
2018-11-05T00:17:11.754Z,43.80
2018-11-05T00:19:40.086Z,42.37
2018-11-05T00:22:08.783Z,46.40
2018-11-05T00:24:37.273Z,45.33
2018-11-05T00:27:05.877Z,45.13
2018-11-05T00:29:34.974Z,45.13
2018-11-05T00:32:03.272Z,47.53
2018-11-05T00:34:31.738Z,45.53
2018-11-05T00:37:00.323Z,47.47
2018-11-05T00:39:28.717Z,46.57
2018-11-05T00:41:57.419Z,46.87
2018-11-05T00:44:26.261Z,47.83
2018-11-05T00:46:54.557Z,49.33
2018-11-05T00:49:22.854Z,49.23
2018-11-05T00:51:51.268Z,46.33
2018-11-05T00:54:19.688Z,49.43
2018-11-05T00:56:47.981Z,48.83
2018-11-05T00:59:16.928Z,49.73
2018-11-05T01:01:45.324Z,51.77
2018-11-05T01:04:13.674Z,50.20
2018-11-05T01:06:42.341Z,49.83
2018-11-05T01:09:10.667Z,51.13
2018-11-05T01:11:39.305Z,52.17
2018-11-05T01:14:08.465Z,51.13
2018-11-05T01:16:37.276Z,51.57
2018-11-05T01:19:05.939Z,50.67
2018-11-05T01:21:34.502Z,51.23
2018-11-05T01:24:03.047Z,51.03
2018-11-05T01:26:31.521Z,50.50
2018-11-05T01:28:59.846Z,50.27
2018-11-05T01:31:28.374Z,50.90
2018-11-05T01:33:57.046Z,49.70
2018-11-05T01:36:25.357Z,50.50
2018-11-05T01:38:53.997Z,51.33
2018-11-05T01:41:22.316Z,51.70
2018-11-05T01:43:51.195Z,52.60
2018-11-05T01:46:19.508Z,51.50
2018-11-05T01:48:47.809Z,52.70
2018-11-05T01:51:16.250Z,53.20
2018-11-05T01:53:44.578Z,51.00
2018-11-05T01:56:12.966Z,52.27
2018-11-05T01:58:41.261Z,51.13
2018-11-05T02:01:09.553Z,51.00
2018-11-05T02:03:37.807Z,50.77
2018-11-05T02:06:06.139Z,50.10
2018-11-05T02:08:34.453Z,52.83
2018-11-05T02:11:02.880Z,55.27
2018-11-05T02:13:31.299Z,54.17
2018-11-05T02:15:59.683Z,52.40
2018-11-05T02:18:28.026Z,53.67
2018-11-05T02:20:56.305Z,54.27
2018-11-05T02:23:24.604Z,53.50
2018-11-05T02:25:52.914Z,53.70
2018-11-05T02:28:21.199Z,54.03
2018-11-05T02:30:49.529Z,57.73
2018-11-05T02:33:17.817Z,54.33
2018-11-05T02:35:46.904Z,54.87
2018-11-05T02:38:15.169Z,54.47
2018-11-05T02:40:43.695Z,53.90
2018-11-05T02:43:11.995Z,54.53
2018-11-05T02:45:40.312Z,54.40
2018-11-05T02:48:08.581Z,54.87
2018-11-05T02:50:36.853Z,53.20
2018-11-05T02:53:05.130Z,53.77
2018-11-05T02:55:33.426Z,53.80
2018-11-05T02:58:01.728Z,54.90
2018-11-05T03:00:30.017Z,52.77
2018-11-05T03:02:58.362Z,53.43
2018-11-05T03:05:26.617Z,52.67
2018-11-05T03:07:54.906Z,52.87
2018-11-05T03:10:23.184Z,55.17
2018-11-05T03:12:51.488Z,52.80
2018-11-05T03:15:19.781Z,52.93
2018-11-05T03:17:48.037Z,54.07
2018-11-05T03:20:16.708Z,52.83
2018-11-05T03:22:45.374Z,53.83
2018-11-05T03:25:13.705Z,52.77
2018-11-05T03:27:42.246Z,51.40
2018-11-05T03:30:13.981Z,55.47
2018-11-05T03:32:42.424Z,52.57
2018-11-05T03:35:11.788Z,52.63
2018-11-05T03:37:41.059Z,51.27
2018-11-05T03:40:10.422Z,53.03
2018-11-05T03:42:39.242Z,52.97
2018-11-05T03:45:08.765Z,53.73
2018-11-05T03:47:37.045Z,52.00
2018-11-05T03:50:07.419Z,52.80
2018-11-05T03:52:35.699Z,53.43
2018-11-05T03:55:03.988Z,50.97
2018-11-05T03:57:32.269Z,52.40
2018-11-05T04:00:00.626Z,51.87
2018-11-05T04:02:29.209Z,51.23
2018-11-05T04:04:57.469Z,50.23
2018-11-05T04:07:25.765Z,48.77
2018-11-05T04:09:54.041Z,50.67
2018-11-05T04:12:22.345Z,51.00
2018-11-05T04:14:50.609Z,49.50
2018-11-05T04:17:18.923Z,47.80
2018-11-05T04:19:47.213Z,49.23
2018-11-05T04:22:15.537Z,49.83
2018-11-05T04:24:43.834Z,49.13
2018-11-05T04:27:12.102Z,47.43
2018-11-05T04:29:47.054Z,48.63
2018-11-05T04:32:15.337Z,47.70
2018-11-05T04:34:43.622Z,48.23
2018-11-05T04:37:11.912Z,47.47
2018-11-05T04:39:40.199Z,47.33
2018-11-05T04:42:08.505Z,46.60
2018-11-05T04:44:36.794Z,47.57
2018-11-05T04:47:05.210Z,49.03
2018-11-05T04:49:33.481Z,46.90
2018-11-05T04:52:01.759Z,45.63
2018-11-05T04:54:30.022Z,45.93
2018-11-05T04:56:58.355Z,46.10
2018-11-05T04:59:26.622Z,47.03
2018-11-05T05:01:54.885Z,46.33
2018-11-05T05:04:23.177Z,47.93
2018-11-05T05:06:51.517Z,46.13
2018-11-05T05:09:19.810Z,46.47
2018-11-05T05:11:48.152Z,47.80
2018-11-05T05:14:16.429Z,47.63
2018-11-05T05:16:44.701Z,48.43
2018-11-05T05:19:13.172Z,46.83
2018-11-05T05:21:41.437Z,47.47
2018-11-05T05:24:09.685Z,48.77
2018-11-05T05:26:37.966Z,47.33
2018-11-05T05:29:06.236Z,47.40
2018-11-05T05:31:34.517Z,48.83
2018-11-05T05:34:02.831Z,49.00
2018-11-05T05:36:31.124Z,46.93
2018-11-05T05:38:59.400Z,48.40
2018-11-05T05:41:27.930Z,47.20
2018-11-05T05:43:56.025Z,48.27
2018-11-05T05:46:24.305Z,48.37
2018-11-05T05:48:52.666Z,46.80
2018-11-05T05:51:20.969Z,50.97
2018-11-05T05:53:49.315Z,48.23
2018-11-05T05:56:17.615Z,46.43
2018-11-05T05:58:45.909Z,48.63
2018-11-05T06:01:14.171Z,48.60
2018-11-05T06:03:42.599Z,46.83
2018-11-05T06:06:10.925Z,45.50
2018-11-05T06:08:39.203Z,47.13
2018-11-05T06:11:07.496Z,45.77
2018-11-05T06:13:35.805Z,46.83
2018-11-05T06:16:04.287Z,46.07
2018-11-05T06:18:32.444Z,46.07
2018-11-05T06:21:00.758Z,48.30
2018-11-05T06:23:29.041Z,45.57
2018-11-05T06:25:57.327Z,44.60
2018-11-05T06:28:25.732Z,45.60
2018-11-05T06:30:54.086Z,45.03
2018-11-05T06:33:22.375Z,45.30
2018-11-05T06:35:50.714Z,43.60
2018-11-05T06:38:19.016Z,45.90
2018-11-05T06:40:47.336Z,43.20
2018-11-05T06:43:15.612Z,43.70
2018-11-05T06:45:43.888Z,44.53
2018-11-05T06:48:12.193Z,44.07
2018-11-05T06:50:40.527Z,42.73
2018-11-05T06:53:08.841Z,43.13
2018-11-05T06:55:37.142Z,41.77
2018-11-05T06:58:05.502Z,42.40
2018-11-05T07:00:33.810Z,43.30
2018-11-05T07:03:02.115Z,42.50
2018-11-05T07:05:30.469Z,43.80
2018-11-05T07:07:58.855Z,42.53
2018-11-05T07:10:27.162Z,43.73
2018-11-05T07:12:55.517Z,42.40
2018-11-05T07:15:23.829Z,42.63
2018-11-05T07:17:52.351Z,44.03
2018-11-05T07:20:21.668Z,42.97
2018-11-05T07:22:50.930Z,42.47
2018-11-05T07:25:19.254Z,41.97
2018-11-05T07:27:47.623Z,41.27
2018-11-05T07:30:18.313Z,42.23
2018-11-05T07:32:47.685Z,40.67
2018-11-05T07:35:16.900Z,42.27
2018-11-05T07:37:45.197Z,41.20
2018-11-05T07:40:14.786Z,43.20
2018-11-05T07:42:43.160Z,42.93
2018-11-05T07:45:14.593Z,42.63
2018-11-05T07:47:44.031Z,42.23
2018-11-05T07:50:13.695Z,43.13
2018-11-05T07:52:41.915Z,41.53
2018-11-05T07:55:12.069Z,40.50
2018-11-05T07:57:41.554Z,40.67
2018-11-05T08:00:19.208Z,42.13
2018-11-05T08:02:48.585Z,39.67
2018-11-05T08:05:18.344Z,41.73
2018-11-05T08:07:47.090Z,40.20
2018-11-05T08:10:15.840Z,40.80
2018-11-05T08:12:44.141Z,39.83
2018-11-05T08:15:18.984Z,38.73
2018-11-05T08:17:48.570Z,40.73
2018-11-05T08:20:16.868Z,40.57
2018-11-05T08:22:45.149Z,38.37
2018-11-05T08:25:14.776Z,39.73
2018-11-05T08:27:43.168Z,39.97
2018-11-05T08:30:18.569Z,39.23
2018-11-05T08:32:46.885Z,40.30
2018-11-05T08:35:15.457Z,39.83
2018-11-05T08:37:44.966Z,40.13
2018-11-05T08:40:16.720Z,39.70
2018-11-05T08:42:47.437Z,38.47
2018-11-05T08:45:17.347Z,39.80
2018-11-05T08:47:45.683Z,39.07
2018-11-05T08:50:15.801Z,40.13
2018-11-05T08:52:44.136Z,39.53
2018-11-05T08:55:14.705Z,40.17
2018-11-05T08:57:43.837Z,39.10
2018-11-05T09:00:19.449Z,39.67
2018-11-05T09:02:47.786Z,41.20
2018-11-05T09:05:16.430Z,41.83
2018-11-05T09:07:45.663Z,41.67
2018-11-05T09:10:14.091Z,40.60
2018-11-05T09:12:43.606Z,39.23
2018-11-05T09:15:13.450Z,40.83
2018-11-05T09:17:42.697Z,41.23
2018-11-05T09:20:12.345Z,40.50
2018-11-05T09:22:41.008Z,38.90
2018-11-05T09:25:10.333Z,39.83
2018-11-05T09:27:38.768Z,39.30
2018-11-05T09:30:10.097Z,38.17
2018-11-05T09:32:38.520Z,39.80
2018-11-05T09:35:07.061Z,39.63
2018-11-05T09:37:35.592Z,40.30
2018-11-05T09:40:05.099Z,40.87
2018-11-05T09:42:33.401Z,39.13
2018-11-05T09:45:01.698Z,40.27
2018-11-05T09:47:29.996Z,39.20
2018-11-05T09:49:58.597Z,39.00
2018-11-05T09:52:26.895Z,37.77
2018-11-05T09:54:55.189Z,39.50
2018-11-05T09:57:23.590Z,36.87
2018-11-05T09:59:51.910Z,38.60
2018-11-05T10:02:20.343Z,39.90
2018-11-05T10:04:48.971Z,38.60
2018-11-05T10:07:17.029Z,37.47
2018-11-05T10:09:45.362Z,36.57
2018-11-05T10:12:13.640Z,38.13
2018-11-05T10:14:41.924Z,37.67
2018-11-05T10:17:10.229Z,37.20
2018-11-05T10:19:38.549Z,37.17
2018-11-05T10:22:06.897Z,37.13
2018-11-05T10:24:35.219Z,35.90
2018-11-05T10:27:03.490Z,38.60
2018-11-05T10:29:31.781Z,35.27
2018-11-05T10:32:00.104Z,36.67
2018-11-05T10:34:28.443Z,35.30
2018-11-05T10:36:56.755Z,34.57
2018-11-05T10:39:25.070Z,34.93
2018-11-05T10:41:53.381Z,34.30
2018-11-05T10:44:21.786Z,35.83
2018-11-05T10:46:50.069Z,35.03
2018-11-05T10:49:18.404Z,35.40
2018-11-05T10:51:46.783Z,33.93
2018-11-05T10:54:15.306Z,35.30
2018-11-05T10:56:43.682Z,34.57
2018-11-05T10:59:11.972Z,34.47
2018-11-05T11:01:45.841Z,34.63
2018-11-05T11:04:19.607Z,33.80
2018-11-05T11:06:47.953Z,34.13
2018-11-05T11:09:16.233Z,34.00
2018-11-05T11:11:45.765Z,34.23
2018-11-05T11:14:15.262Z,34.70
2018-11-05T11:16:44.678Z,35.23
2018-11-05T11:19:13.037Z,33.20
2018-11-05T11:21:41.354Z,33.90
2018-11-05T11:24:09.737Z,33.93
2018-11-05T11:26:38.394Z,33.87
2018-11-05T11:29:06.917Z,33.30
2018-11-05T11:31:35.034Z,34.70
2018-11-05T11:34:03.392Z,33.10
2018-11-05T11:36:31.747Z,33.17
2018-11-05T11:39:00.031Z,31.97
2018-11-05T11:41:28.741Z,32.90
2018-11-05T11:43:57.101Z,32.33
2018-11-05T11:46:25.385Z,33.63
2018-11-05T11:48:53.716Z,33.30
2018-11-05T11:51:22.005Z,32.07
2018-11-05T11:53:50.338Z,33.07
2018-11-05T11:56:18.629Z,33.13
2018-11-05T11:58:46.949Z,33.77
2018-11-05T12:01:15.238Z,33.73
2018-11-05T12:03:43.539Z,33.53
2018-11-05T12:06:11.830Z,34.07
2018-11-05T12:08:40.150Z,33.37
2018-11-05T12:11:08.585Z,31.80
2018-11-05T12:13:36.870Z,32.70
2018-11-05T12:16:05.726Z,32.83
2018-11-05T12:18:34.106Z,32.93
2018-11-05T12:21:02.410Z,32.37
2018-11-05T12:23:30.691Z,31.47
2018-11-05T12:25:58.977Z,32.70
2018-11-05T12:28:27.288Z,31.50
2018-11-05T12:30:55.642Z,30.53
2018-11-05T12:33:23.938Z,31.30
2018-11-05T12:35:52.273Z,31.37
2018-11-05T12:38:20.602Z,30.87
2018-11-05T12:40:48.862Z,31.37
2018-11-05T12:43:17.157Z,30.97
2018-11-05T12:45:45.470Z,31.87
2018-11-05T12:48:13.770Z,32.07
2018-11-05T12:50:42.384Z,29.53
2018-11-05T12:53:10.661Z,29.93
2018-11-05T12:55:39.080Z,30.20
2018-11-05T12:58:07.383Z,30.53
2018-11-05T13:00:35.658Z,32.23
2018-11-05T13:03:04.003Z,31.80
2018-11-05T13:05:32.449Z,31.93
2018-11-05T13:08:00.755Z,30.40
2018-11-05T13:10:29.109Z,31.40
2018-11-05T13:12:57.422Z,30.37
2018-11-05T13:15:25.771Z,31.27
2018-11-05T13:17:54.037Z,31.77
2018-11-05T13:20:23.337Z,30.63
2018-11-05T13:22:51.817Z,30.53
2018-11-05T13:25:20.117Z,30.17
2018-11-05T13:27:49.554Z,31.97
2018-11-05T13:30:18.107Z,29.03
2018-11-05T13:32:46.643Z,30.93
2018-11-05T13:35:16.286Z,33.50
2018-11-05T13:37:44.917Z,29.87
2018-11-05T13:40:15.141Z,30.60
2018-11-05T13:42:43.643Z,31.40
2018-11-05T13:45:12.974Z,30.23
2018-11-05T13:47:42.116Z,30.07
2018-11-05T13:50:10.909Z,30.00
2018-11-05T13:52:39.475Z,30.93
2018-11-05T13:55:09.306Z,30.70
2018-11-05T13:57:37.747Z,28.43
2018-11-05T14:00:06.939Z,28.63
2018-11-05T14:02:35.030Z,29.57
2018-11-05T14:05:03.075Z,31.13
2018-11-05T14:07:31.161Z,30.00
2018-11-05T14:09:59.210Z,30.43
2018-11-05T14:12:27.259Z,30.50
2018-11-05T14:14:55.290Z,30.23
2018-11-05T14:17:23.321Z,30.80
2018-11-05T14:19:51.367Z,31.27
2018-11-05T14:22:19.677Z,30.20
2018-11-05T14:24:47.717Z,29.27
2018-11-05T14:27:15.779Z,29.97
2018-11-05T14:29:44.354Z,29.90
2018-11-05T14:32:11.965Z,31.50
2018-11-05T14:34:39.953Z,30.83
2018-11-05T14:37:08.023Z,29.70
2018-11-05T14:39:36.085Z,30.97
2018-11-05T14:42:04.142Z,31.10
2018-11-05T14:44:32.159Z,30.87
2018-11-05T14:47:00.207Z,31.80
2018-11-05T14:49:28.225Z,30.10
2018-11-05T14:51:56.288Z,29.87
2018-11-05T14:54:24.308Z,30.93
2018-11-05T14:56:52.428Z,31.33
2018-11-05T14:59:20.455Z,30.50
2018-11-05T15:01:52.833Z,30.17
2018-11-05T15:04:20.944Z,30.33
2018-11-05T15:06:48.989Z,30.60
2018-11-05T15:09:17.042Z,30.87
2018-11-05T15:11:45.071Z,30.50
2018-11-05T15:14:13.120Z,32.73
2018-11-05T15:16:41.185Z,30.27
2018-11-05T15:19:09.582Z,29.37
2018-11-05T15:21:37.309Z,29.37
2018-11-05T15:24:05.651Z,28.87
2018-11-05T15:26:33.742Z,30.30
2018-11-05T15:29:01.845Z,30.53
2018-11-05T15:31:29.910Z,30.07
2018-11-05T15:33:58.043Z,29.53
2018-11-05T15:36:26.005Z,29.23
2018-11-05T15:38:54.085Z,28.87
2018-11-05T15:41:22.117Z,28.97
2018-11-05T15:43:50.142Z,29.00
2018-11-05T15:46:18.220Z,29.57
2018-11-05T15:48:46.242Z,29.00
2018-11-05T15:51:14.533Z,29.73
2018-11-05T15:53:42.903Z,29.07
2018-11-05T15:56:10.745Z,28.20
2018-11-05T15:58:38.814Z,28.53
2018-11-05T16:01:07.098Z,28.33
2018-11-05T16:03:35.145Z,28.83
2018-11-05T16:06:03.172Z,29.40
2018-11-05T16:08:31.212Z,29.87
2018-11-05T16:10:59.425Z,30.30
2018-11-05T16:13:27.477Z,30.37
2018-11-05T16:15:55.536Z,33.60
2018-11-05T16:18:23.598Z,31.53
2018-11-05T16:20:51.753Z,29.37
2018-11-05T16:23:19.778Z,29.80
2018-11-05T16:25:47.902Z,30.13
2018-11-05T16:28:15.961Z,30.23
2018-11-05T16:30:44.030Z,32.07
2018-11-05T16:33:12.104Z,32.80
2018-11-05T16:35:41.277Z,32.70
2018-11-05T16:38:09.378Z,32.43
2018-11-05T16:40:37.415Z,32.57
2018-11-05T16:43:05.457Z,32.07
2018-11-05T16:45:33.540Z,30.97
2018-11-05T16:48:01.693Z,31.67
2018-11-05T16:50:29.732Z,31.97
2018-11-05T16:52:57.817Z,32.43
2018-11-05T16:55:25.885Z,29.77
2018-11-05T16:57:54.101Z,29.77
2018-11-05T17:00:22.077Z,30.97
2018-11-05T17:02:50.653Z,31.70
2018-11-05T17:05:18.556Z,31.50
2018-11-05T17:07:46.657Z,32.17
2018-11-05T17:10:15.111Z,31.40
2018-11-05T17:12:43.808Z,32.13
2018-11-05T17:15:13.127Z,32.27
2018-11-05T17:17:41.494Z,32.37
2018-11-05T17:20:10.582Z,32.10
2018-11-05T17:22:39.179Z,30.57
2018-11-05T17:25:07.533Z,30.87
2018-11-05T17:27:35.639Z,31.20
2018-11-05T17:30:04.092Z,31.77
2018-11-05T17:32:32.123Z,31.53
2018-11-05T17:35:00.173Z,30.83
2018-11-05T17:37:28.221Z,32.07
2018-11-05T17:39:56.377Z,31.03
2018-11-05T17:42:24.440Z,31.53
2018-11-05T17:44:52.520Z,32.60
2018-11-05T17:47:20.568Z,31.57
2018-11-05T17:49:55.351Z,31.37
2018-11-05T17:54:57.905Z,30.70
2018-11-05T17:57:26.067Z,30.50
2018-11-05T17:59:54.124Z,32.20
2018-11-05T18:02:22.942Z,31.27
2018-11-05T18:04:51.632Z,33.33
2018-11-05T18:07:19.658Z,31.67
2018-11-05T18:09:47.703Z,33.77
2018-11-05T18:12:15.734Z,33.47
2018-11-05T18:14:44.078Z,32.53
2018-11-05T18:17:12.491Z,33.73
2018-11-05T18:19:40.757Z,31.37
2018-11-05T18:22:09.021Z,31.43
2018-11-05T18:24:37.293Z,30.73
2018-11-05T18:27:05.770Z,29.50
2018-11-05T18:29:34.259Z,29.57
2018-11-05T18:32:02.655Z,30.40
2018-11-05T18:34:30.932Z,30.90
2018-11-05T18:36:59.229Z,30.67
2018-11-05T18:39:27.835Z,31.73
2018-11-05T18:41:56.125Z,32.50
2018-11-05T18:44:24.395Z,31.90
2018-11-05T18:46:52.691Z,31.40
2018-11-05T18:49:21.049Z,31.87
2018-11-05T18:51:49.362Z,29.63
2018-11-05T18:54:17.631Z,29.13
2018-11-05T18:56:45.918Z,30.63
2018-11-05T18:59:14.255Z,31.47
2018-11-05T19:01:42.523Z,29.77
2018-11-05T19:04:10.837Z,29.50
2018-11-05T19:06:39.334Z,29.33
2018-11-05T19:09:07.784Z,30.27
2018-11-05T19:11:36.197Z,27.87
2018-11-05T19:14:04.841Z,27.83
2018-11-05T19:16:33.099Z,27.50
2018-11-05T19:19:01.422Z,27.87
2018-11-05T19:21:29.737Z,27.10
2018-11-05T19:23:58.159Z,25.90
2018-11-05T19:26:26.362Z,26.43
2018-11-05T19:28:54.686Z,25.47
2018-11-05T19:31:23.011Z,24.93
2018-11-05T19:33:51.330Z,24.30
2018-11-05T19:36:19.674Z,24.77
2018-11-05T19:38:47.963Z,24.50
2018-11-05T19:41:16.303Z,23.93
2018-11-05T19:43:44.681Z,23.63
2018-11-05T19:46:13.049Z,24.20
2018-11-05T19:48:41.314Z,23.17
2018-11-05T19:51:09.609Z,23.33
2018-11-05T19:53:37.946Z,22.07
2018-11-05T19:56:06.882Z,23.60
2018-11-05T19:58:35.113Z,22.87
2018-11-05T20:01:03.366Z,21.57
2018-11-05T20:03:31.689Z,22.40
2018-11-05T20:06:00.029Z,22.63
2018-11-05T20:08:28.283Z,22.23
2018-11-05T20:10:56.616Z,21.40
2018-11-05T20:13:24.889Z,21.30
2018-11-05T20:15:53.151Z,20.27
2018-11-05T20:18:21.611Z,21.20
2018-11-05T20:20:49.881Z,20.17
2018-11-05T20:23:18.925Z,20.93
2018-11-05T20:25:46.942Z,20.10
2018-11-05T20:28:14.987Z,20.00
2018-11-05T20:30:43.057Z,20.30
2018-11-05T20:33:11.294Z,22.57
2018-11-05T20:35:39.733Z,20.37
2018-11-05T20:38:07.845Z,20.97
2018-11-05T20:40:35.927Z,19.80
2018-11-05T20:43:03.937Z,20.07
2018-11-05T20:45:31.974Z,20.37
2018-11-05T20:48:00.034Z,19.70
2018-11-05T20:50:28.107Z,19.63
2018-11-05T20:52:56.151Z,20.37
2018-11-05T20:55:24.203Z,17.80
2018-11-05T20:57:52.232Z,19.07
2018-11-05T21:00:21.206Z,18.90
2018-11-05T21:02:49.266Z,19.10
2018-11-05T21:05:17.284Z,18.90
2018-11-05T21:07:45.359Z,18.47
2018-11-05T21:10:14.309Z,18.47
2018-11-05T21:12:42.920Z,18.10
2018-11-05T21:15:16.316Z,17.93
2018-11-05T21:17:45.145Z,17.60
2018-11-05T21:20:13.765Z,18.10
2018-11-05T21:22:42.040Z,16.37
2018-11-05T21:25:10.029Z,18.30
2018-11-05T21:27:38.303Z,17.23
2018-11-05T21:30:07.714Z,17.60
2018-11-05T21:32:35.785Z,17.10
2018-11-05T21:35:03.994Z,17.37
2018-11-05T21:37:32.125Z,17.20
2018-11-05T21:40:00.197Z,16.63
2018-11-05T21:42:28.341Z,17.17
2018-11-05T21:44:56.372Z,17.17
2018-11-05T21:47:24.536Z,16.83
2018-11-05T21:49:52.537Z,16.93
2018-11-05T21:52:20.675Z,16.80
2018-11-05T21:54:48.755Z,16.90
2018-11-05T21:57:17.207Z,17.13
2018-11-05T21:59:45.218Z,16.93
2018-11-05T22:02:13.412Z,17.03
2018-11-05T22:04:41.480Z,16.70
2018-11-05T22:07:09.539Z,15.17
2018-11-05T22:09:37.647Z,16.70
2018-11-05T22:12:06.120Z,16.07
2018-11-05T22:14:34.197Z,14.60
2018-11-05T22:17:02.285Z,15.30
2018-11-05T22:19:30.323Z,15.90
2018-11-05T22:21:58.492Z,15.93
2018-11-05T22:24:26.544Z,14.80
2018-11-05T22:26:55.643Z,14.13
2018-11-05T22:29:32.245Z,14.43
2018-11-05T22:32:00.364Z,14.00
2018-11-05T22:34:38.791Z,14.47
2018-11-05T22:37:06.958Z,14.53
2018-11-05T22:39:43.538Z,14.47
2018-11-05T22:42:11.763Z,14.17
2018-11-05T22:44:39.976Z,14.27
2018-11-05T22:47:08.035Z,14.10
2018-11-05T22:49:36.393Z,14.17
2018-11-05T22:52:04.868Z,13.57
2018-11-05T22:54:32.910Z,13.30
2018-11-05T22:57:00.961Z,12.97
2018-11-05T22:59:29.004Z,13.40
2018-11-05T23:01:57.022Z,12.77
2018-11-05T23:04:25.199Z,13.37
2018-11-05T23:06:53.321Z,12.50
2018-11-05T23:09:22.005Z,13.03
2018-11-05T23:11:50.084Z,12.87
2018-11-05T23:14:18.136Z,13.13
2018-11-05T23:16:46.197Z,13.70
2018-11-05T23:19:14.241Z,13.50
2018-11-05T23:21:42.401Z,13.17
2018-11-05T23:24:10.440Z,12.60
2018-11-05T23:26:38.526Z,13.33
2018-11-05T23:29:06.841Z,13.37
2018-11-05T23:31:35.008Z,13.13
2018-11-05T23:34:03.046Z,13.30
2018-11-05T23:36:31.100Z,12.87
2018-11-05T23:38:59.165Z,13.07
2018-11-05T23:41:27.224Z,13.17
2018-11-05T23:43:55.349Z,12.43
2018-11-05T23:46:23.409Z,13.03
2018-11-05T23:48:51.452Z,13.20
2018-11-05T23:51:19.505Z,12.93
2018-11-05T23:53:47.548Z,13.20
2018-11-05T23:56:15.569Z,12.40
2018-11-05T23:58:43.620Z,13.23
